createdAt,value
2022-08-28T00:02:10.454Z,19222.47
2022-08-28T00:04:39.085Z,19259.03
2022-08-28T00:07:08.602Z,19224.50
2022-08-28T00:09:36.827Z,19259.03
2022-08-28T00:12:07.457Z,19287.50
2022-08-28T00:14:35.677Z,19281.41
2022-08-28T00:17:03.861Z,19234.66
2022-08-28T00:19:36.643Z,19283.44
2022-08-28T00:22:08.309Z,19313.91
2022-08-28T00:24:37.221Z,19328.13
2022-08-28T00:27:23.274Z,19358.63
2022-08-28T00:29:51.437Z,19332.19
2022-08-28T00:32:23.555Z,19336.25
2022-08-28T00:34:51.978Z,19350.50
2022-08-28T00:37:24.667Z,19352.53
2022-08-28T00:39:53.165Z,19383.00
2022-08-28T00:42:22.229Z,19374.88
2022-08-28T00:44:50.328Z,19370.81
2022-08-28T00:47:18.527Z,19344.41
2022-08-28T00:49:53.875Z,19305.78
2022-08-28T00:52:24.519Z,19340.31
2022-08-28T00:54:59.709Z,19378.94
2022-08-28T00:57:33.448Z,19421.63
2022-08-28T01:00:01.971Z,19370.81
2022-08-28T01:02:31.862Z,19370.81
2022-08-28T01:05:00.072Z,19425.69
2022-08-28T01:07:29.763Z,19356.59
2022-08-28T01:09:59.382Z,19358.63
2022-08-28T01:12:32.466Z,19374.88
2022-08-28T01:15:06.765Z,19317.97
2022-08-28T01:17:36.573Z,19299.69
2022-08-28T01:20:14.517Z,19267.16
2022-08-28T01:22:52.294Z,19269.22
2022-08-28T01:25:25.197Z,19208.25
2022-08-28T01:27:53.315Z,19236.69
2022-08-28T01:30:24.180Z,19208.25
2022-08-28T01:32:56.704Z,19212.31
2022-08-28T01:35:32.439Z,19242.78
2022-08-28T01:38:01.364Z,19261.06
2022-08-28T01:40:36.233Z,19279.38
2022-08-28T01:43:10.119Z,19216.38
2022-08-28T01:45:38.572Z,19236.69
2022-08-28T01:48:08.553Z,19265.13
2022-08-28T01:50:37.458Z,19242.78
2022-08-28T01:53:07.365Z,19259.03
2022-08-28T01:55:43.126Z,19305.78
2022-08-28T01:58:13.962Z,19220.44
2022-08-28T02:00:42.938Z,19238.72
2022-08-28T02:03:12.681Z,19297.66
2022-08-28T02:05:41.932Z,19224.50
2022-08-28T02:08:10.584Z,19224.50
2022-08-28T02:10:43.584Z,19196.06
2022-08-28T02:13:13.399Z,19236.69
2022-08-28T02:15:43.894Z,19297.66
2022-08-28T02:18:13.054Z,19261.06
2022-08-28T02:20:42.943Z,19252.94
2022-08-28T02:23:11.986Z,19252.94
2022-08-28T02:25:41.591Z,19224.50
2022-08-28T02:28:10.052Z,19234.66
2022-08-28T02:30:38.535Z,19212.31
2022-08-28T02:33:06.799Z,19338.28
2022-08-28T02:35:34.999Z,19309.84
2022-08-28T02:38:04.591Z,19313.91
2022-08-28T02:40:33.011Z,19332.19
2022-08-28T02:43:02.572Z,19370.81
2022-08-28T02:45:30.744Z,19338.28
2022-08-28T02:47:58.847Z,19313.91
2022-08-28T02:50:27.010Z,19259.03
2022-08-28T02:52:55.170Z,19340.31
2022-08-28T02:55:24.630Z,19342.34
2022-08-28T02:57:54.526Z,19332.19
2022-08-28T03:00:26.740Z,19301.72
2022-08-28T03:02:55.004Z,19277.34
2022-08-28T03:05:26.144Z,19317.97
2022-08-28T03:07:54.755Z,19326.09
2022-08-28T03:10:23.071Z,19350.50
2022-08-28T03:12:51.753Z,19340.31
2022-08-28T03:15:20.114Z,19273.28
2022-08-28T03:17:49.682Z,19265.13
2022-08-28T03:20:19.007Z,19313.91
2022-08-28T03:23:04.833Z,19230.59
2022-08-28T03:25:33.150Z,19261.06
2022-08-28T03:28:01.268Z,19289.53
2022-08-28T03:30:29.445Z,19250.91
2022-08-28T03:32:58.974Z,19259.03
2022-08-28T03:35:27.081Z,19279.38
2022-08-28T03:37:55.149Z,19259.03
2022-08-28T03:40:23.426Z,19248.88
2022-08-28T03:42:53.591Z,19208.25
2022-08-28T03:45:22.818Z,19206.22
2022-08-28T03:47:51.840Z,19234.66
2022-08-28T03:50:22.633Z,19226.53
2022-08-28T03:52:53.192Z,19236.69
2022-08-28T03:55:22.651Z,19202.16
2022-08-28T03:57:50.875Z,19204.19
2022-08-28T04:00:20.422Z,19208.25
2022-08-28T04:02:48.594Z,19118.84
2022-08-28T04:05:17.778Z,19161.50
2022-08-28T04:07:47.299Z,19155.41
2022-08-28T04:10:15.805Z,19165.56
2022-08-28T04:12:44.660Z,19131.03
2022-08-28T04:15:15.076Z,19194.03
2022-08-28T04:17:43.298Z,19147.28
2022-08-28T04:20:12.668Z,19161.50
2022-08-28T04:22:40.906Z,19177.75
2022-08-28T04:25:10.755Z,19212.31
2022-08-28T04:27:38.875Z,19202.16
2022-08-28T04:30:09.986Z,19202.16
2022-08-28T04:32:39.965Z,19273.28
2022-08-28T04:35:12.250Z,19236.69
2022-08-28T04:37:41.546Z,19234.66
2022-08-28T04:40:15.938Z,19234.66
2022-08-28T04:42:45.047Z,19224.50
2022-08-28T04:45:13.543Z,19285.47
2022-08-28T04:47:41.627Z,19289.53
2022-08-28T04:50:12.283Z,19275.31
2022-08-28T04:52:40.362Z,19299.69
2022-08-28T04:55:11.333Z,19297.66
2022-08-28T04:57:39.457Z,19322.03
2022-08-28T05:00:10.453Z,19313.91
2022-08-28T05:02:38.609Z,19334.22
2022-08-28T05:05:07.556Z,19366.75
2022-08-28T05:07:35.797Z,19401.28
2022-08-28T05:10:04.019Z,19346.44
2022-08-28T05:12:36.237Z,19338.28
2022-08-28T05:15:05.617Z,19370.81
2022-08-28T05:17:34.162Z,19399.25
2022-08-28T05:20:02.420Z,19407.38
2022-08-28T05:22:32.562Z,19419.59
2022-08-28T05:25:01.430Z,19421.63
2022-08-28T05:27:29.924Z,19454.13
2022-08-28T05:30:01.944Z,19403.31
2022-08-28T05:32:30.447Z,19458.19
2022-08-28T05:34:58.486Z,19496.81
2022-08-28T05:37:27.703Z,19496.81
2022-08-28T05:39:55.905Z,19464.28
2022-08-28T05:42:24.031Z,19443.97
2022-08-28T05:45:00.305Z,19462.25
2022-08-28T05:47:28.419Z,19517.13
2022-08-28T05:49:56.657Z,19549.63
2022-08-28T05:52:24.871Z,19523.22
2022-08-28T05:54:52.975Z,19553.72
2022-08-28T05:57:21.103Z,19488.69
2022-08-28T05:59:49.685Z,19502.91
2022-08-28T06:02:19.197Z,19529.31
2022-08-28T06:04:48.977Z,19504.94
2022-08-28T06:07:17.238Z,19565.91
2022-08-28T06:09:45.788Z,19576.06
2022-08-28T06:12:13.872Z,19569.97
2022-08-28T06:14:42.849Z,19525.25
2022-08-28T06:17:12.955Z,19549.63
2022-08-28T06:19:42.504Z,19545.56
2022-08-28T06:22:14.694Z,19551.69
2022-08-28T06:24:42.933Z,19523.22
2022-08-28T06:27:11.044Z,19580.13
2022-08-28T06:29:39.822Z,19608.56
2022-08-28T06:32:09.147Z,19622.81
2022-08-28T06:34:37.387Z,19598.41
2022-08-28T06:37:07.891Z,19663.44
2022-08-28T06:39:35.983Z,19659.38
2022-08-28T06:42:05.425Z,19669.53
2022-08-28T06:44:33.662Z,19655.31
2022-08-28T06:47:02.019Z,19635.00
2022-08-28T06:49:30.136Z,19665.47
2022-08-28T06:51:58.218Z,19683.78
2022-08-28T06:54:30.860Z,19671.56
2022-08-28T06:56:59.007Z,19700.03
2022-08-28T06:59:27.183Z,19659.38
2022-08-28T07:01:55.675Z,19685.81
2022-08-28T07:04:23.861Z,19661.41
2022-08-28T07:06:54.496Z,19671.56
2022-08-28T07:09:24.373Z,19675.63
2022-08-28T07:11:54.533Z,19659.38
2022-08-28T07:14:23.237Z,19643.13
2022-08-28T07:16:53.883Z,19653.28
2022-08-28T07:19:21.970Z,19624.84
2022-08-28T07:21:50.058Z,19624.84
2022-08-28T07:24:19.692Z,19555.75
2022-08-28T07:26:49.262Z,19616.72
2022-08-28T07:29:20.138Z,19681.75
2022-08-28T07:31:50.783Z,19691.91
2022-08-28T07:34:26.786Z,19854.50
2022-08-28T07:36:56.216Z,19809.78
2022-08-28T07:39:24.534Z,19899.19
2022-08-28T07:41:52.586Z,19968.31
2022-08-28T07:44:39.646Z,20004.88
2022-08-28T07:47:11.509Z,20120.75
2022-08-28T07:49:41.484Z,20193.91
2022-08-28T07:52:10.543Z,20252.84
2022-08-28T07:54:40.387Z,20244.72
2022-08-28T07:57:10.651Z,20273.19
2022-08-28T07:59:40.717Z,20311.78
2022-08-28T08:02:11.500Z,20376.84
2022-08-28T08:04:39.930Z,20452.06
2022-08-28T08:07:08.812Z,20480.50
2022-08-28T08:09:40.226Z,20559.78
2022-08-28T08:12:10.226Z,20651.25
2022-08-28T08:14:41.361Z,20639.06
2022-08-28T08:17:12.053Z,20651.25
2022-08-28T08:19:41.030Z,20679.72
2022-08-28T08:22:09.280Z,20732.56
2022-08-28T08:24:37.388Z,20771.19
2022-08-28T08:27:06.711Z,20777.28
2022-08-28T08:29:39.817Z,20801.69
2022-08-28T08:32:11.838Z,20820.00
2022-08-28T08:34:45.691Z,20856.56
2022-08-28T08:37:14.539Z,20885.03
2022-08-28T08:39:44.231Z,20935.88
2022-08-28T08:42:24.467Z,20842.34
2022-08-28T08:44:57.987Z,20828.13
2022-08-28T08:47:39.447Z,20834.22
2022-08-28T08:50:16.476Z,20850.47
2022-08-28T08:53:13.318Z,20885.03
2022-08-28T08:55:47.533Z,20935.88
2022-08-28T08:58:27.713Z,20870.81
2022-08-28T09:01:08.919Z,20956.19
2022-08-28T09:03:53.967Z,21047.69
2022-08-28T09:06:35.253Z,21007.00
2022-08-28T09:09:15.663Z,21035.47
2022-08-28T09:11:57.068Z,21122.91
2022-08-28T09:14:37.982Z,21141.19
2022-08-28T09:17:09.568Z,21096.47
2022-08-28T09:19:38.345Z,21057.84
2022-08-28T09:22:06.517Z,21057.84
2022-08-28T09:24:37.833Z,21063.94
2022-08-28T09:27:14.170Z,21084.28
2022-08-28T09:29:43.516Z,21061.91
2022-08-28T09:32:25.824Z,21114.75
2022-08-28T09:35:10.518Z,21090.38
2022-08-28T09:37:39.440Z,21053.78
2022-08-28T09:40:23.659Z,21035.47
2022-08-28T09:43:21.868Z,21053.78
2022-08-28T09:45:59.249Z,21055.81
2022-08-28T09:48:37.180Z,21090.38
2022-08-28T09:51:08.926Z,21057.84
2022-08-28T09:53:44.075Z,21070.03
2022-08-28T09:56:22.502Z,21084.28
2022-08-28T09:58:55.822Z,21114.75
2022-08-28T10:01:44.763Z,21112.72
2022-08-28T10:04:33.221Z,21155.44
2022-08-28T10:07:07.215Z,21165.59
2022-08-28T10:09:48.497Z,21135.09
2022-08-28T10:12:41.310Z,21153.41
2022-08-28T10:15:18.774Z,21155.44
2022-08-28T10:18:10.732Z,21185.91
2022-08-28T10:20:54.664Z,21179.81
2022-08-28T10:23:39.326Z,21232.69
2022-08-28T10:26:27.796Z,21259.13
2022-08-28T10:29:20.914Z,21273.34
2022-08-28T10:32:01.707Z,21285.53
2022-08-28T10:34:47.658Z,21287.56
2022-08-28T10:37:36.918Z,21267.25
2022-08-28T10:40:11.653Z,21299.78
2022-08-28T10:42:44.838Z,21277.41
2022-08-28T10:45:17.245Z,21301.81
2022-08-28T10:47:52.134Z,21342.47
2022-08-28T10:50:27.716Z,21346.53
2022-08-28T10:53:03.754Z,21362.81
2022-08-28T10:55:40.232Z,21309.94
2022-08-28T10:58:23.818Z,21362.81
2022-08-28T11:00:56.956Z,21338.41
2022-08-28T11:03:34.780Z,21399.41
2022-08-28T11:06:11.511Z,21346.53
2022-08-28T11:08:41.650Z,21379.06
2022-08-28T11:11:15.870Z,21397.38
2022-08-28T11:13:56.992Z,21368.91
2022-08-28T11:16:40.361Z,21401.44
2022-08-28T11:19:55.246Z,21391.28
2022-08-28T11:22:29.043Z,21389.22
2022-08-28T11:25:14.111Z,21452.25
2022-08-28T11:28:17.548Z,21423.81
2022-08-28T11:30:48.184Z,21448.19
2022-08-28T11:33:39.879Z,21464.47
2022-08-28T11:36:13.310Z,21480.72
2022-08-28T11:39:23.014Z,21462.44
2022-08-28T11:42:38.216Z,21474.63
2022-08-28T11:45:07.884Z,21484.78
2022-08-28T11:47:56.321Z,21470.56
2022-08-28T11:50:32.230Z,21480.72
2022-08-28T11:53:42.698Z,21537.66
2022-08-28T11:56:45.537Z,21497.00
2022-08-28T11:59:52.591Z,21501.06
2022-08-28T12:02:48.780Z,21537.66
2022-08-28T12:05:54.434Z,21604.75
2022-08-28T12:09:15.499Z,21562.06
2022-08-28T12:11:58.409Z,21555.97
2022-08-28T12:15:11.240Z,21610.84
2022-08-28T12:17:50.494Z,21606.78
2022-08-28T12:20:35.856Z,21663.72
2022-08-28T12:23:32.693Z,21665.75
2022-08-28T12:26:05.279Z,21639.31
2022-08-28T12:28:40.720Z,21680.00
2022-08-28T12:32:16.090Z,21667.78
2022-08-28T12:35:05.676Z,21663.72
2022-08-28T12:37:52.190Z,21686.09
2022-08-28T12:40:25.381Z,21724.72
2022-08-28T12:42:58.258Z,21710.50
2022-08-28T12:45:31.754Z,21673.88
2022-08-28T12:48:06.870Z,21720.66
2022-08-28T12:50:37.515Z,21708.47
2022-08-28T12:53:11.839Z,21716.59
2022-08-28T12:55:41.165Z,21763.34
2022-08-28T12:58:15.097Z,21743.03
2022-08-28T13:00:55.051Z,21761.31
2022-08-28T13:03:26.611Z,21793.84
2022-08-28T13:06:04.898Z,21820.28
2022-08-28T13:08:36.134Z,21840.63
2022-08-28T13:11:05.626Z,21836.56
2022-08-28T13:13:41.454Z,21852.81
2022-08-28T13:16:12.710Z,21854.88
2022-08-28T13:18:51.390Z,21848.75
2022-08-28T13:21:38.823Z,21838.59
2022-08-28T13:24:43.521Z,21867.06
2022-08-28T13:27:24.259Z,21879.25
2022-08-28T13:30:05.176Z,21891.47
2022-08-28T13:32:37.715Z,21891.47
2022-08-28T13:35:36.386Z,21877.22
2022-08-28T13:38:10.868Z,21832.50
2022-08-28T13:40:59.194Z,21881.28
2022-08-28T13:43:30.591Z,21844.69
2022-08-28T13:45:59.047Z,21865.03
2022-08-28T13:48:28.990Z,21867.06
2022-08-28T13:51:04.881Z,21919.94
2022-08-28T13:53:35.317Z,21944.34
2022-08-28T13:56:05.146Z,21940.25
2022-08-28T13:58:33.934Z,21950.44
2022-08-28T14:01:02.447Z,21919.94
2022-08-28T14:03:35.542Z,21899.59
2022-08-28T14:06:09.226Z,21901.63
2022-08-28T14:08:37.301Z,21978.91
2022-08-28T14:11:07.111Z,21948.41
2022-08-28T14:13:35.918Z,21956.53
2022-08-28T14:16:08.172Z,21972.81
2022-08-28T14:18:36.763Z,22007.38
2022-08-28T14:21:07.821Z,21938.22
2022-08-28T14:23:35.936Z,21978.91
2022-08-28T14:26:07.003Z,21944.34
2022-08-28T14:28:35.230Z,21917.91
2022-08-28T14:31:11.009Z,21891.47
2022-08-28T14:33:42.456Z,21942.31
2022-08-28T14:36:18.159Z,21903.66
2022-08-28T14:38:46.305Z,21950.44
2022-08-28T14:41:15.162Z,21991.09
2022-08-28T14:43:43.381Z,21928.06
2022-08-28T14:46:16.791Z,21897.56
2022-08-28T14:48:45.315Z,21928.06
2022-08-28T14:51:13.648Z,21928.06
2022-08-28T14:53:43.763Z,21936.19
2022-08-28T14:56:12.605Z,21899.59
2022-08-28T14:58:40.775Z,21903.66
2022-08-28T15:01:08.939Z,21913.84
2022-08-28T15:03:38.317Z,21930.09
2022-08-28T15:06:10.026Z,21913.84
2022-08-28T15:08:39.760Z,21926.03
2022-08-28T15:11:13.224Z,21895.53
2022-08-28T15:13:44.015Z,21883.31
2022-08-28T15:16:16.214Z,21883.31
2022-08-28T15:18:46.040Z,21924.00
2022-08-28T15:21:19.243Z,21915.88
2022-08-28T15:23:49.714Z,21879.25
2022-08-28T15:26:20.531Z,21877.22
2022-08-28T15:28:49.124Z,21863.00
2022-08-28T15:31:18.986Z,21836.56
2022-08-28T15:33:47.162Z,21871.13
2022-08-28T15:36:15.271Z,21869.09
2022-08-28T15:39:01.181Z,21877.22
2022-08-28T15:41:31.749Z,21842.66
2022-08-28T15:44:03.096Z,21846.72
2022-08-28T15:46:34.674Z,21838.59
2022-08-28T15:49:03.959Z,21814.19
2022-08-28T15:51:36.827Z,21804.03
2022-08-28T15:54:06.154Z,21830.47
2022-08-28T15:56:35.611Z,21793.84
2022-08-28T15:59:03.726Z,21797.94
2022-08-28T16:01:31.908Z,21822.31
2022-08-28T16:04:00.025Z,21781.66
2022-08-28T16:06:29.070Z,21757.25
2022-08-28T16:08:58.570Z,21751.16
2022-08-28T16:11:27.771Z,21704.38
2022-08-28T16:14:04.535Z,21720.66
2022-08-28T16:16:33.641Z,21759.28
2022-08-28T16:19:01.881Z,21755.22
2022-08-28T16:21:30.264Z,21769.47
2022-08-28T16:23:58.686Z,21724.72
2022-08-28T16:26:26.840Z,21700.31
2022-08-28T16:28:54.956Z,21700.31
2022-08-28T16:31:24.666Z,21734.88
2022-08-28T16:33:53.439Z,21686.09
2022-08-28T16:36:23.849Z,21651.53
2022-08-28T16:38:52.936Z,21655.59
2022-08-28T16:41:32.893Z,21592.56
2022-08-28T16:44:01.243Z,21635.25
2022-08-28T16:46:30.962Z,21627.13
2022-08-28T16:48:59.608Z,21610.84
2022-08-28T16:51:29.577Z,21553.94
2022-08-28T16:53:58.494Z,21643.38
2022-08-28T16:56:26.733Z,21562.06
2022-08-28T16:58:55.351Z,21598.66
2022-08-28T17:01:24.562Z,21639.31
2022-08-28T17:03:55.521Z,21598.66
2022-08-28T17:06:26.954Z,21566.13
2022-08-28T17:08:57.332Z,21517.31
2022-08-28T17:11:26.615Z,21551.91
2022-08-28T17:13:55.492Z,21525.47
2022-08-28T17:16:25.877Z,21497.00
2022-08-28T17:18:55.404Z,21431.94
2022-08-28T17:21:41.342Z,21425.84
2022-08-28T17:24:12.406Z,21476.66
2022-08-28T17:26:41.630Z,21452.25
2022-08-28T17:29:10.385Z,21425.84
2022-08-28T17:31:39.391Z,21440.06
2022-08-28T17:34:09.059Z,21456.34
2022-08-28T17:36:39.388Z,21478.69
2022-08-28T17:39:12.183Z,21446.16
2022-08-28T17:41:42.725Z,21413.63
2022-08-28T17:44:11.455Z,21389.22
2022-08-28T17:46:39.736Z,21346.53
2022-08-28T17:49:09.908Z,21295.72
2022-08-28T17:51:43.285Z,21330.28
2022-08-28T17:54:14.192Z,21246.91
2022-08-28T17:56:42.649Z,21236.75
2022-08-28T17:59:11.394Z,21185.91
2022-08-28T18:01:41.066Z,21196.09
2022-08-28T18:04:11.390Z,21139.16
2022-08-28T18:06:40.151Z,21224.56
2022-08-28T18:09:10.582Z,21179.81
2022-08-28T18:11:38.875Z,21196.09
2022-08-28T18:14:07.732Z,21167.63
2022-08-28T18:16:38.246Z,21147.28
2022-08-28T18:19:09.570Z,21137.13
2022-08-28T18:21:39.947Z,21131.03
2022-08-28T18:24:08.796Z,21104.59
2022-08-28T18:26:36.948Z,21059.88
2022-08-28T18:29:05.186Z,21035.47
2022-08-28T18:31:33.508Z,21076.13
2022-08-28T18:34:01.864Z,21019.22
2022-08-28T18:36:30.384Z,21009.03
2022-08-28T18:38:59.921Z,20966.34
2022-08-28T18:41:43.004Z,20978.56
2022-08-28T18:44:14.430Z,20972.47
2022-08-28T18:46:43.196Z,20927.72
2022-08-28T18:49:12.241Z,20941.97
2022-08-28T18:51:42.275Z,20895.19
2022-08-28T18:54:13.699Z,20876.91
2022-08-28T18:56:45.261Z,20927.72
2022-08-28T18:59:13.873Z,20789.50
2022-08-28T19:01:42.337Z,20801.69
2022-08-28T19:04:10.855Z,20807.78
2022-08-28T19:06:39.325Z,20820.00
2022-08-28T19:09:07.562Z,20797.63
2022-08-28T19:11:37.258Z,20773.22
2022-08-28T19:14:05.753Z,20781.38
2022-08-28T19:16:35.362Z,20777.28
2022-08-28T19:19:04.624Z,20763.06
2022-08-28T19:21:33.297Z,20756.97
2022-08-28T19:24:01.809Z,20789.50
2022-08-28T19:26:30.224Z,20777.28
2022-08-28T19:29:00.752Z,20756.97
2022-08-28T19:31:29.730Z,20718.34
2022-08-28T19:33:59.074Z,20693.94
2022-08-28T19:36:29.514Z,20754.94
2022-08-28T19:38:57.883Z,20724.44
2022-08-28T19:41:26.488Z,20708.19
2022-08-28T19:43:54.911Z,20681.75
2022-08-28T19:46:24.600Z,20679.72
2022-08-28T19:48:54.752Z,20657.34
2022-08-28T19:51:25.327Z,20649.22
2022-08-28T19:53:58.385Z,20661.44
2022-08-28T19:56:29.692Z,20635.00
2022-08-28T19:58:59.586Z,20651.25
2022-08-28T20:01:31.349Z,20618.72
2022-08-28T20:04:01.392Z,20647.19
2022-08-28T20:06:33.011Z,20622.81
2022-08-28T20:09:03.033Z,20641.09
2022-08-28T20:11:31.505Z,20628.91
2022-08-28T20:14:04.798Z,20661.44
2022-08-28T20:16:39.066Z,20612.63
2022-08-28T20:19:10.883Z,20635.00
2022-08-28T20:21:41.595Z,20675.66
2022-08-28T20:24:14.827Z,20614.66
2022-08-28T20:26:43.167Z,20580.13
2022-08-28T20:29:12.222Z,20580.13
2022-08-28T20:31:45.503Z,20639.06
2022-08-28T20:34:16.956Z,20614.66
2022-08-28T20:36:45.699Z,20602.47
2022-08-28T20:39:14.782Z,20594.34
2022-08-28T20:41:46.009Z,20590.28
2022-08-28T20:44:20.113Z,20582.16
2022-08-28T20:46:51.110Z,20592.31
2022-08-28T20:49:22.429Z,20594.34
2022-08-28T20:51:55.999Z,20600.44
2022-08-28T20:54:28.781Z,20637.03
2022-08-28T20:56:59.269Z,20602.47
2022-08-28T20:59:33.427Z,20584.19
2022-08-28T21:02:11.753Z,20651.25
2022-08-28T21:04:43.294Z,20602.47
2022-08-28T21:07:12.682Z,20620.78
2022-08-28T21:10:05.456Z,20606.53
2022-08-28T21:12:29.723Z,20569.94
2022-08-28T21:14:58.991Z,20559.78
2022-08-28T21:17:30.781Z,20547.59
2022-08-28T21:20:03.175Z,20586.22
2022-08-28T21:22:35.386Z,20598.41
2022-08-28T21:25:06.102Z,20594.34
2022-08-28T21:27:34.923Z,20592.31
2022-08-28T21:30:05.046Z,20559.78
2022-08-28T21:32:36.193Z,20561.81
2022-08-28T21:35:08.014Z,20616.69
2022-08-28T21:37:36.618Z,20618.72
2022-08-28T21:40:07.836Z,20675.66
2022-08-28T21:42:36.658Z,20651.25
2022-08-28T21:45:11.688Z,20714.28
2022-08-28T21:47:43.266Z,20667.53
2022-08-28T21:50:12.517Z,20691.91
2022-08-28T21:52:41.468Z,20669.56
2022-08-28T21:55:14.081Z,20639.06
2022-08-28T21:57:43.556Z,20649.22
2022-08-28T22:00:20.545Z,20614.66
2022-08-28T22:02:51.581Z,20614.66
2022-08-28T22:05:20.425Z,20659.38
2022-08-28T22:07:48.661Z,20702.09
2022-08-28T22:10:16.952Z,20647.19
2022-08-28T22:12:45.287Z,20698.00
2022-08-28T22:15:13.602Z,20704.13
2022-08-28T22:17:41.914Z,20706.16
2022-08-28T22:20:12.426Z,20673.63
2022-08-28T22:22:58.320Z,20618.72
2022-08-28T22:25:26.710Z,20614.66
2022-08-28T22:27:55.045Z,20618.72
2022-08-28T22:30:23.804Z,20639.06
2022-08-28T22:32:52.671Z,20635.00
2022-08-28T22:35:22.324Z,20608.56
2022-08-28T22:37:50.586Z,20606.53
2022-08-28T22:40:19.203Z,20569.94
2022-08-28T22:42:47.670Z,20608.56
2022-08-28T22:45:15.914Z,20608.56
2022-08-28T22:47:44.854Z,20608.56
2022-08-28T22:50:13.468Z,20588.25
2022-08-28T22:52:43.571Z,20602.47
2022-08-28T22:55:14.133Z,20569.94
2022-08-28T22:57:43.279Z,20545.56
2022-08-28T23:00:16.257Z,20531.31
2022-08-28T23:02:45.336Z,20563.84
2022-08-28T23:05:14.365Z,20576.03
2022-08-28T23:07:44.854Z,20515.06
2022-08-28T23:10:14.587Z,20519.13
2022-08-28T23:12:43.376Z,20508.97
2022-08-28T23:15:15.426Z,20559.78
2022-08-28T23:17:45.169Z,20521.16
2022-08-28T23:20:18.091Z,20521.16
2022-08-28T23:22:48.462Z,20529.28
2022-08-28T23:25:20.054Z,20494.75
2022-08-28T23:27:49.596Z,20458.16
2022-08-28T23:30:19.936Z,20464.25
2022-08-28T23:32:48.234Z,20466.28
2022-08-28T23:35:18.439Z,20482.53
2022-08-28T23:37:51.825Z,20466.28
2022-08-28T23:40:24.938Z,20441.88
2022-08-28T23:42:54.648Z,20433.75
2022-08-28T23:45:23.840Z,20433.75
2022-08-28T23:47:52.766Z,20450.03
2022-08-28T23:50:24.883Z,20456.13
2022-08-28T23:52:54.477Z,20450.03
2022-08-28T23:55:23.559Z,20460.19
2022-08-28T23:57:55.292Z,20452.06
